Time;durP1;ratioP1;P1;durP2;ratioP2;P2;SDS_P1;SDS_P2;PMS_P1;PMS_P2;Temp;Humidity;BMP_temperature;BMP_pressure;BME280_temperature;BME280_humidity;BME280_pressure;Samples;Min_cycle;Max_cycle;Signal;HPM_P1;HPM_P2
2021/07/07 00:00:54;;;;;;;11.20;7.80;;;;;;;21.60;61.41;96522.56;128105;1090;28906;-91
2021/07/07 00:03:26;;;;;;;9.20;7.90;;;;;;;21.57;61.42;96534.06;128161;1090;30226;-92
2021/07/07 00:05:57;;;;;;;10.43;8.50;;;;;;;21.57;61.61;96526.75;128040;1090;47536;-92
2021/07/07 00:08:28;;;;;;;10.00;8.03;;;;;;;21.57;61.55;96529.45;128114;1093;31825;-92
2021/07/07 00:11:00;;;;;;;9.55;7.90;;;;;;;21.60;61.29;96530.66;128168;1092;28083;-91
2021/07/07 00:13:32;;;;;;;9.70;7.80;;;;;;;21.61;61.09;96529.52;129506;1093;32445;-93
2021/07/07 00:16:03;;;;;;;10.48;8.28;;;;;;;21.63;60.97;96535.34;129727;1092;24918;-92
2021/07/07 00:18:34;;;;;;;9.68;7.88;;;;;;;21.60;60.74;96531.44;129124;1090;26334;-92
2021/07/07 00:21:08;;;;;;;9.65;7.58;;;;;;;21.60;60.82;96538.75;128210;1092;24807;-91
2021/07/07 00:23:39;;;;;;;10.50;7.60;;;;;;;21.60;60.91;96536.05;128063;1091;27299;-91
2021/07/07 00:26:11;;;;;;;9.43;6.68;;;;;;;21.60;60.60;96533.35;128121;1088;28242;-91
2021/07/07 00:28:42;;;;;;;10.43;8.08;;;;;;;21.63;60.60;96536.13;128092;1093;40203;-90
2021/07/07 00:31:14;;;;;;;10.10;7.95;;;;;;;21.62;60.34;96536.48;128133;1090;26238;-91
2021/07/07 00:33:45;;;;;;;9.88;7.73;;;;;;;21.60;60.63;96536.05;128118;1091;29003;-92
2021/07/07 00:36:17;;;;;;;10.88;7.33;;;;;;;21.61;60.56;96534.92;128164;1090;29287;-91
2021/07/07 00:38:48;;;;;;;8.80;7.23;;;;;;;21.63;60.10;96530.73;128137;1090;29507;-91
2021/07/07 00:41:20;;;;;;;14.13;7.85;;;;;;;21.64;60.20;96537.69;128092;1090;25618;-90
2021/07/07 00:43:51;;;;;;;9.05;7.03;;;;;;;21.67;59.76;96538.89;128128;1090;25989;-91
2021/07/07 00:46:23;;;;;;;8.98;7.25;;;;;;;21.70;59.61;96532.82;128133;1091;29211;-91
2021/07/07 00:48:54;;;;;;;8.05;6.50;;;;;;;21.72;59.17;96532.47;128150;1091;25797;-91
2021/07/07 00:51:25;;;;;;;8.13;6.45;;;;;;;21.76;59.39;96542.20;128085;1093;35076;-91
2021/07/07 00:54:00;;;;;;;9.18;7.18;;;;;;;21.75;58.98;96537.94;128076;1092;76597;-91
2021/07/07 00:56:32;;;;;;;10.00;7.68;;;;;;;21.74;59.20;96530.97;128168;1090;24868;-91
2021/07/07 00:59:05;;;;;;;9.85;7.60;;;;;;;21.59;59.52;96529.09;128314;1092;23460;-91
2021/07/07 01:01:37;;;;;;;10.40;8.23;;;;;;;21.43;59.66;96529.13;128127;1090;36504;-86
2021/07/07 01:04:08;;;;;;;9.08;7.60;;;;;;;21.30;60.22;96522.27;128134;1090;24703;-91
2021/07/07 01:06:40;;;;;;;10.80;8.80;;;;;;;21.18;60.39;96530.41;128119;1091;35598;-91
2021/07/07 01:09:11;;;;;;;10.53;9.43;;;;;;;21.02;61.03;96527.71;128168;1093;24079;-92
2021/07/07 01:11:43;;;;;;;9.85;8.25;;;;;;;20.85;61.00;96530.75;128130;1091;26125;-91
2021/07/07 01:14:14;;;;;;;10.20;8.58;;;;;;;20.72;61.62;96530.81;128148;1090;26111;-92
2021/07/07 01:16:46;;;;;;;7.53;6.10;;;;;;;20.71;61.65;96540.03;128183;1090;25463;-91
2021/07/07 01:19:18;;;;;;;9.43;6.90;;;;;;;20.72;61.64;96535.42;128206;1091;24575;-92
2021/07/07 01:21:51;;;;;;;7.98;6.70;;;;;;;20.76;61.55;96533.59;128117;1093;25207;-91
2021/07/07 01:24:23;;;;;;;7.45;6.60;;;;;;;20.78;61.34;96538.63;128114;1093;29533;-92
2021/07/07 01:26:54;;;;;;;8.65;6.93;;;;;;;20.79;61.63;96530.20;128133;1092;28062;-91
2021/07/07 01:29:26;;;;;;;9.15;7.75;;;;;;;20.80;61.72;96530.98;128133;1090;31867;-91
2021/07/07 01:31:57;;;;;;;9.13;7.80;;;;;;;20.73;61.68;96531.59;128118;1090;28156;-91
2021/07/07 01:34:29;;;;;;;11.45;8.38;;;;;;;20.70;61.72;96537.69;128134;1092;25805;-90
2021/07/07 01:37:00;;;;;;;8.80;7.60;;;;;;;20.64;62.02;96534.44;128140;1093;29253;-90
2021/07/07 01:39:31;;;;;;;11.50;8.83;;;;;;;20.56;62.13;96538.09;128253;1090;24446;-89
2021/07/07 01:42:06;;;;;;;11.83;8.18;;;;;;;20.45;62.26;96535.09;128253;1092;26136;-90
2021/07/07 01:44:37;;;;;;;10.38;7.53;;;;;;;20.45;62.61;96539.70;128233;1090;25470;-89
2021/07/07 01:47:09;;;;;;;10.78;8.23;;;;;;;20.49;62.92;96537.88;128162;1092;29079;-91
2021/07/07 01:49:40;;;;;;;8.90;7.30;;;;;;;20.58;62.56;96538.52;128253;1092;28012;-90
2021/07/07 01:52:11;;;;;;;8.00;7.20;;;;;;;20.67;62.58;96539.13;128229;1092;24336;-91
2021/07/07 01:54:43;;;;;;;8.58;7.50;;;;;;;20.71;61.90;96540.03;128217;1091;26398;-91
2021/07/07 01:57:14;;;;;;;9.88;7.60;;;;;;;20.71;62.02;96542.72;128181;1087;29784;-91
2021/07/07 01:59:46;;;;;;;9.23;7.70;;;;;;;20.74;62.11;96539.33;128167;1092;29581;-91
2021/07/07 02:02:17;;;;;;;7.40;6.67;;;;;;;20.77;61.97;96534.38;128157;1090;28340;-91
2021/07/07 02:04:48;;;;;;;8.80;7.88;;;;;;;20.77;61.91;96532.47;128119;1092;26034;-91
2021/07/07 02:07:20;;;;;;;9.55;7.53;;;;;;;20.74;62.13;96531.25;128145;1091;26885;-90
2021/07/07 02:09:51;;;;;;;9.48;8.03;;;;;;;20.72;62.09;96535.42;128131;1090;25336;-90
2021/07/07 02:12:23;;;;;;;10.20;7.80;;;;;;;20.72;62.09;96540.81;128170;1090;25132;-91
2021/07/07 02:14:54;;;;;;;8.93;7.83;;;;;;;20.65;61.89;96530.61;128133;1093;24634;-91
2021/07/07 02:17:25;;;;;;;9.30;7.98;;;;;;;20.60;62.16;96536.27;128151;1092;23671;-91
2021/07/07 02:19:57;;;;;;;9.20;7.58;;;;;;;20.55;62.25;96533.83;128113;1092;26645;-92
2021/07/07 02:22:29;;;;;;;10.98;7.85;;;;;;;20.57;62.04;96534.27;128103;1091;28205;-91
2021/07/07 02:25:01;;;;;;;9.03;7.58;;;;;;;20.58;62.41;96529.66;128113;1090;28294;-90
2021/07/07 02:27:32;;;;;;;8.53;6.75;;;;;;;20.57;62.20;96534.27;128199;1090;28330;-91
2021/07/07 02:30:06;;;;;;;8.13;7.03;;;;;;;20.56;62.16;96531.92;128207;1093;25734;-91
2021/07/07 02:32:37;;;;;;;9.00;7.68;;;;;;;20.53;62.44;96533.36;128102;1090;26379;-90
2021/07/07 02:35:12;;;;;;;9.18;7.93;;;;;;;20.47;62.48;96534.75;128122;1090;29617;-91
2021/07/07 02:37:45;;;;;;;9.33;7.75;;;;;;;20.43;62.46;96541.96;128120;1091;31174;-91
2021/07/07 02:40:17;;;;;;;9.80;7.93;;;;;;;20.44;62.40;96538.14;128165;1091;25393;-92
2021/07/07 02:42:48;;;;;;;8.90;7.00;;;;;;;20.46;62.55;96543.96;128256;1093;32424;-91
2021/07/07 02:45:20;;;;;;;9.38;7.90;;;;;;;20.56;62.40;96537.30;128168;1091;25565;-87
2021/07/07 02:47:53;;;;;;;9.60;7.85;;;;;;;20.53;62.21;96549.52;128171;1092;22791;-88
2021/07/07 02:50:25;;;;;;;8.28;6.98;;;;;;;20.54;62.04;96544.92;128190;1091;29669;-88
2021/07/07 02:52:56;;;;;;;8.88;7.38;;;;;;;20.55;62.18;96552.69;128133;1090;25560;-88
2021/07/07 02:55:28;;;;;;;8.73;7.20;;;;;;;20.50;62.07;96554.82;128167;1090;24175;-88
2021/07/07 02:58:00;;;;;;;8.85;7.35;;;;;;;20.49;62.55;96548.66;128111;1092;22772;-88
2021/07/07 03:00:34;;;;;;;10.38;7.75;;;;;;;20.42;62.39;96551.95;128120;1093;23448;-87
2021/07/07 03:03:07;;;;;;;9.98;7.93;;;;;;;20.35;62.62;96553.62;128197;1089;26245;-87
2021/07/07 03:05:41;;;;;;;8.28;6.90;;;;;;;20.41;62.83;96552.27;128471;1093;23245;-88
2021/07/07 03:08:14;;;;;;;9.45;7.68;;;;;;;20.44;62.61;96556.98;128100;1091;26082;-88
2021/07/07 03:10:48;;;;;;;8.53;7.60;;;;;;;20.40;62.59;96558.75;128097;1093;25697;-88
2021/07/07 03:13:21;;;;;;;8.78;7.23;;;;;;;20.46;62.31;96557.42;128129;1092;23713;-88
2021/07/07 03:15:55;;;;;;;8.25;7.08;;;;;;;20.45;62.47;96555.86;128159;1093;24866;-88
2021/07/07 03:18:27;;;;;;;8.78;7.28;;;;;;;20.45;62.46;96564.72;128119;1091;27941;-88
2021/07/07 03:20:58;;;;;;;8.48;7.33;;;;;;;20.43;62.39;96566.20;128122;1091;24280;-88
2021/07/07 03:23:30;;;;;;;9.60;7.58;;;;;;;20.43;62.46;96568.89;128140;1090;24894;-87
2021/07/07 03:26:02;;;;;;;8.90;6.48;;;;;;;20.42;62.54;96572.71;128175;1090;25209;-87
2021/07/07 03:28:33;;;;;;;9.48;6.73;;;;;;;20.46;62.45;96570.89;128228;1090;22819;-87
2021/07/07 03:31:05;;;;;;;7.85;6.00;;;;;;;20.50;62.38;96573.67;128216;1092;22784;-87
2021/07/07 03:33:36;;;;;;;8.43;6.75;;;;;;;20.51;62.72;96573.33;128194;1090;22809;-89
2021/07/07 03:36:07;;;;;;;8.85;6.65;;;;;;;20.58;62.67;96573.54;128072;1091;34554;-85
2021/07/07 03:38:39;;;;;;;9.15;6.60;;;;;;;20.63;62.52;96577.89;128119;1091;24436;-87
2021/07/07 03:41:10;;;;;;;9.48;7.48;;;;;;;20.64;62.73;96582.92;128172;1090;25836;-87
2021/07/07 03:43:41;;;;;;;8.58;7.10;;;;;;;20.60;62.54;96581.27;128182;1092;22837;-87
2021/07/07 03:46:13;;;;;;;10.25;7.70;;;;;;;20.54;62.74;96588.80;128098;1092;23556;-89
2021/07/07 03:48:44;;;;;;;10.20;7.23;;;;;;;20.56;63.07;96589.27;128109;1091;23988;-88
2021/07/07 03:51:15;;;;;;;8.58;7.35;;;;;;;20.53;62.71;96584.54;128149;1092;23533;-88
2021/07/07 03:53:47;;;;;;;9.10;7.25;;;;;;;20.56;63.15;96591.17;128137;1092;23680;-88
2021/07/07 03:56:18;;;;;;;7.65;6.83;;;;;;;20.60;63.38;96597.44;128130;1093;23296;-88
2021/07/07 03:58:49;;;;;;;7.08;6.20;;;;;;;20.64;63.28;96592.92;128125;1092;22816;-87
2021/07/07 04:01:21;;;;;;;7.78;6.38;;;;;;;20.75;63.28;96600.17;128147;1091;26461;-87
2021/07/07 04:03:52;;;;;;;8.55;7.00;;;;;;;20.93;62.92;96599.86;128115;1092;27080;-87
2021/07/07 04:06:24;;;;;;;7.23;6.43;;;;;;;21.07;62.98;96602.92;128109;1093;22784;-87
2021/07/07 04:08:55;;;;;;;8.75;6.38;;;;;;;21.24;62.56;96601.80;128123;1092;36209;-87
2021/07/07 04:11:26;;;;;;;9.18;7.08;;;;;;;21.40;61.85;96597.25;128084;1093;23904;-87
2021/07/07 04:13:57;;;;;;;7.33;6.15;;;;;;;21.53;61.35;96597.92;128120;1091;23438;-88
2021/07/07 04:16:29;;;;;;;8.80;7.00;;;;;;;21.62;61.20;96603.92;128128;1092;27114;-87
2021/07/07 04:19:00;;;;;;;7.53;6.20;;;;;;;21.73;61.02;96602.27;128106;1092;23457;-88
2021/07/07 04:21:32;;;;;;;8.10;6.70;;;;;;;21.82;60.70;96610.19;128090;1092;24426;-87
2021/07/07 04:24:03;;;;;;;10.93;7.08;;;;;;;21.89;60.61;96608.42;128105;1093;25813;-88
2021/07/07 04:26:34;;;;;;;8.03;6.75;;;;;;;21.95;60.39;96614.32;128171;1092;23391;-87
2021/07/07 04:29:08;;;;;;;9.40;7.05;;;;;;;21.95;59.56;96611.62;128204;1092;23372;-87
2021/07/07 04:31:41;;;;;;;6.68;5.98;;;;;;;21.98;59.70;96604.77;128115;1091;28711;-87
2021/07/07 04:34:12;;;;;;;7.75;6.33;;;;;;;22.01;59.76;96614.84;128110;1092;23198;-87
2021/07/07 04:36:44;;;;;;;8.70;6.50;;;;;;;22.03;59.37;96615.28;128094;1091;23127;-88
2021/07/07 04:39:15;;;;;;;7.30;6.28;;;;;;;22.03;59.57;96617.97;128157;1093;26066;-87
2021/07/07 04:41:46;;;;;;;8.60;6.88;;;;;;;22.07;59.28;96625.04;128137;1090;25083;-87
2021/07/07 04:44:18;;;;;;;8.15;6.30;;;;;;;22.16;59.27;96620.23;128121;1091;24460;-87
2021/07/07 04:46:49;;;;;;;7.55;6.45;;;;;;;22.20;59.47;96633.81;128127;1093;23154;-86
2021/07/07 04:49:20;;;;;;;7.80;6.65;;;;;;;22.28;58.91;96634.77;128131;1093;25273;-87
2021/07/07 04:51:52;;;;;;;8.78;6.43;;;;;;;22.34;58.98;96634.12;128107;1092;22799;-87
2021/07/07 04:54:23;;;;;;;8.40;6.55;;;;;;;22.40;59.09;96635.42;128129;1090;22793;-87
2021/07/07 04:56:54;;;;;;;7.63;6.83;;;;;;;22.47;58.92;96634.77;128118;1090;23043;-87
2021/07/07 04:59:26;;;;;;;8.07;6.90;;;;;;;22.54;58.98;96634.16;128111;1093;22791;-87
2021/07/07 05:01:57;;;;;;;7.93;7.10;;;;;;;22.68;58.81;96639.84;128114;1091;24394;-87
2021/07/07 05:04:28;;;;;;;7.55;6.50;;;;;;;22.78;58.20;96637.33;128153;1090;24141;-87
2021/07/07 05:06:59;;;;;;;8.88;7.13;;;;;;;22.83;58.27;96630.91;128126;1092;22772;-87
2021/07/07 05:09:31;;;;;;;9.63;7.10;;;;;;;23.01;58.31;96632.02;128130;1090;26239;-87
2021/07/07 05:12:04;;;;;;;9.83;7.25;;;;;;;23.16;57.68;96632.28;128193;1090;22778;-87
2021/07/07 05:14:36;;;;;;;8.78;7.18;;;;;;;23.38;58.10;96637.72;128244;1090;23917;-87
2021/07/07 05:17:07;;;;;;;9.33;6.88;;;;;;;23.80;57.80;96638.81;128155;1091;28310;-87
2021/07/07 05:19:38;;;;;;;7.88;6.55;;;;;;;24.36;57.20;96638.11;128121;1090;24095;-87
2021/07/07 05:22:10;;;;;;;7.23;6.33;;;;;;;26.40;56.40;96633.50;128163;1090;24035;-87
2021/07/07 05:24:41;;;;;;;8.38;7.38;;;;;;;28.61;52.09;96634.56;128097;1090;28078;-87
2021/07/07 05:27:13;;;;;;;9.13;5.85;;;;;;;30.42;49.08;96640.77;128104;1090;23291;-86
2021/07/07 05:29:44;;;;;;;7.93;6.10;;;;;;;32.24;47.13;96640.98;128096;1089;23240;-87
2021/07/07 05:32:21;;;;;;;6.88;6.15;;;;;;;33.17;41.82;96645.44;128134;1090;22804;-87
2021/07/07 05:34:54;;;;;;;6.00;5.25;;;;;;;34.27;42.39;96636.56;128140;1089;23481;-88
2021/07/07 05:37:26;;;;;;;7.30;6.33;;;;;;;35.45;40.34;96639.53;128109;1093;25867;-87
2021/07/07 05:39:57;;;;;;;6.15;5.38;;;;;;;36.37;38.50;96644.05;128119;1093;24502;-87
2021/07/07 05:42:28;;;;;;;5.40;4.90;;;;;;;37.15;36.46;96644.72;128101;1091;26496;-88
2021/07/07 05:45:00;;;;;;;5.38;4.88;;;;;;;38.00;35.62;96640.59;128155;1090;22998;-88
2021/07/07 05:47:31;;;;;;;5.73;5.23;;;;;;;38.27;32.03;96637.11;128110;1092;22795;-87
2021/07/07 05:50:02;;;;;;;6.17;5.53;;;;;;;37.95;31.88;96643.21;128073;1090;27393;-86
2021/07/07 05:52:34;;;;;;;5.70;5.10;;;;;;;38.21;31.60;96644.50;128187;1090;24202;-88
2021/07/07 05:55:07;;;;;;;6.03;5.43;;;;;;;38.41;32.15;96652.34;128136;1093;26361;-87
2021/07/07 05:57:38;;;;;;;6.10;5.60;;;;;;;39.00;30.93;96655.72;128176;1090;22796;-86
2021/07/07 06:00:13;;;;;;;5.73;5.23;;;;;;;39.74;31.24;96659.79;128112;1090;22911;-87
2021/07/07 06:02:47;;;;;;;5.90;5.40;;;;;;;40.32;29.65;96652.95;128382;1090;22822;-88
2021/07/07 06:05:19;;;;;;;5.75;5.20;;;;;;;40.88;29.34;96650.51;128251;1090;22835;-88
2021/07/07 06:07:51;;;;;;;8.38;7.23;;;;;;;41.27;27.90;96648.41;128157;1089;23823;-87
2021/07/07 06:10:25;;;;;;;9.75;8.48;;;;;;;41.14;28.25;96654.25;128078;1090;54194;-87
2021/07/07 06:12:57;;;;;;;14.30;10.65;;;;;;;41.81;27.06;96648.98;128194;1090;22806;-87
2021/07/07 06:15:31;;;;;;;9.78;7.40;;;;;;;41.71;26.66;96651.13;128130;1092;22777;-86
2021/07/07 06:18:03;;;;;;;8.93;6.75;;;;;;;41.71;26.40;96648.34;128162;1093;22873;-87
2021/07/07 06:20:35;;;;;;;7.98;6.50;;;;;;;41.72;25.33;96654.67;128161;1090;45740;-86
2021/07/07 06:23:07;;;;;;;6.05;5.45;;;;;;;41.62;25.60;96653.23;128163;1090;47432;-87
2021/07/07 06:25:39;;;;;;;6.90;5.85;;;;;;;41.96;24.76;96660.84;128137;1090;25419;-87
2021/07/07 06:28:11;;;;;;;6.65;5.93;;;;;;;41.81;24.26;96654.56;128144;1090;25993;-88
2021/07/07 06:30:42;;;;;;;6.98;5.45;;;;;;;41.51;24.59;96653.82;128053;1090;25262;-88
2021/07/07 06:33:14;;;;;;;5.35;4.85;;;;;;;42.04;25.16;96666.75;128143;1090;28608;-88
2021/07/07 06:35:45;;;;;;;5.23;4.77;;;;;;;42.66;23.91;96654.37;128120;1090;22848;-87
2021/07/07 06:38:17;;;;;;;5.25;4.75;;;;;;;42.56;23.60;96661.34;128128;1090;22856;-87
2021/07/07 06:40:48;;;;;;;4.60;4.20;;;;;;;43.05;23.77;96656.77;128155;1090;22783;-87
2021/07/07 06:43:21;;;;;;;5.40;4.90;;;;;;;43.23;23.10;96662.02;128103;1090;22870;-87
2021/07/07 06:45:52;;;;;;;4.75;4.23;;;;;;;43.51;22.92;96671.39;128117;1091;24867;-88
2021/07/07 06:48:24;;;;;;;5.43;4.38;;;;;;;43.60;22.87;96664.08;128135;1088;24471;-89
2021/07/07 06:50:55;;;;;;;5.50;4.28;;;;;;;43.61;22.28;96666.36;128091;1090;35320;-89
2021/07/07 06:53:27;;;;;;;5.43;4.93;;;;;;;43.73;21.59;96664.44;128157;1093;40335;-88
2021/07/07 06:55:58;;;;;;;5.35;4.58;;;;;;;43.84;22.03;96670.10;128270;1092;24010;-88
2021/07/07 06:58:30;;;;;;;4.93;4.45;;;;;;;43.95;21.33;96667.38;128379;1090;23380;-88
2021/07/07 07:01:01;;;;;;;4.65;4.25;;;;;;;44.01;21.11;96667.39;128374;1090;25451;-87
2021/07/07 07:03:32;;;;;;;7.98;4.63;;;;;;;44.25;22.17;96667.79;128327;1090;22816;-88
2021/07/07 07:06:04;;;;;;;5.13;4.63;;;;;;;44.95;21.58;96669.05;128269;1090;44952;-88
2021/07/07 07:08:35;;;;;;;4.78;4.38;;;;;;;45.23;21.74;96658.63;128204;1093;22909;-87
2021/07/07 07:11:07;;;;;;;5.95;5.13;;;;;;;45.13;20.84;96665.73;128193;1091;23744;-87
2021/07/07 07:13:38;;;;;;;4.68;4.23;;;;;;;45.12;20.23;96664.22;128185;1090;31018;-86
2021/07/07 07:16:10;;;;;;;4.75;4.35;;;;;;;45.47;21.21;96657.34;128166;1090;22829;-88
2021/07/07 07:18:41;;;;;;;4.68;4.28;;;;;;;46.04;21.00;96664.43;128111;1092;25887;-88
2021/07/07 07:21:13;;;;;;;5.23;4.58;;;;;;;46.28;20.23;96666.61;128108;1090;22794;-87
2021/07/07 07:23:44;;;;;;;4.75;4.20;;;;;;;46.48;20.28;96659.93;128126;1091;25861;-86
2021/07/07 07:26:17;;;;;;;4.88;4.48;;;;;;;46.66;19.91;96662.88;128155;1091;22791;-86
2021/07/07 07:28:49;;;;;;;5.00;4.60;;;;;;;46.94;19.73;96659.15;128099;1092;22764;-87
2021/07/07 07:31:20;;;;;;;4.65;3.73;;;;;;;47.15;19.90;96656.70;128158;1093;23338;-87
2021/07/07 07:33:52;;;;;;;4.23;3.93;;;;;;;47.72;19.82;96657.73;128101;1093;26553;-86
2021/07/07 07:36:24;;;;;;;4.23;3.93;;;;;;;48.46;19.60;96656.41;128103;1092;23843;-87
2021/07/07 07:39:04;;;;;;;4.25;3.95;;;;;;;49.14;19.09;96662.62;128094;1091;22801;-88
2021/07/07 07:41:38;;;;;;;4.33;4.03;;;;;;;49.45;17.86;96663.15;128210;1093;26280;-88
2021/07/07 07:44:10;;;;;;;4.75;3.90;;;;;;;50.10;18.27;96658.88;128095;1090;28744;-89
2021/07/07 07:46:42;;;;;;;4.25;3.85;;;;;;;50.91;16.95;96661.00;128091;1092;26200;-89
2021/07/07 07:49:14;;;;;;;4.20;3.88;;;;;;;50.66;16.66;96654.88;128094;1092;24493;-88
2021/07/07 07:51:46;;;;;;;4.45;4.05;;;;;;;50.05;17.52;96659.76;128132;1091;24522;-88
2021/07/07 07:54:17;;;;;;;4.30;3.90;;;;;;;49.89;16.15;96656.70;128110;1093;24419;-88
2021/07/07 07:56:49;;;;;;;3.17;3.00;;;;;;;48.89;15.83;96659.14;128124;1093;23317;-88
2021/07/07 07:59:20;;;;;;;3.53;3.28;;;;;;;48.76;16.49;96659.08;128097;1093;27174;-89
2021/07/07 08:01:52;;;;;;;3.30;3.10;;;;;;;48.14;15.77;96662.64;128157;1089;25032;-87
2021/07/07 08:04:23;;;;;;;3.23;3.00;;;;;;;47.86;16.66;96656.56;128111;1093;22838;-89
2021/07/07 08:06:55;;;;;;;3.00;2.80;;;;;;;49.18;16.59;96662.30;128116;1090;23357;-88
2021/07/07 08:09:26;;;;;;;2.80;2.60;;;;;;;50.43;15.58;96669.50;128092;1091;48708;-88
2021/07/07 08:11:58;;;;;;;2.70;2.50;;;;;;;51.33;15.78;96670.27;128146;1093;25865;-88
2021/07/07 08:14:31;;;;;;;2.68;2.53;;;;;;;51.65;14.78;96670.73;128120;1091;23788;-88
2021/07/07 08:17:03;;;;;;;2.98;2.58;;;;;;;51.90;14.55;96668.28;128179;1092;22799;-88
2021/07/07 08:19:35;;;;;;;3.33;3.03;;;;;;;51.96;14.58;96670.22;128190;1093;22790;-88
2021/07/07 08:22:06;;;;;;;3.08;2.88;;;;;;;52.57;14.06;96665.63;128173;1092;23528;-89
2021/07/07 08:24:38;;;;;;;3.03;2.80;;;;;;;52.13;14.03;96671.27;128098;1092;25338;-86
2021/07/07 08:27:09;;;;;;;2.65;2.45;;;;;;;51.34;13.94;96663.30;128143;1091;23129;-86
2021/07/07 08:29:42;;;;;;;4.25;2.95;;;;;;;50.85;13.08;96669.62;128151;1092;22934;-89
2021/07/07 08:32:14;;;;;;;3.48;2.85;;;;;;;49.54;14.40;96676.80;128204;1092;25125;-87
2021/07/07 08:34:45;;;;;;;3.35;3.05;;;;;;;49.04;14.89;96681.20;128117;1093;23530;-86
2021/07/07 08:37:17;;;;;;;3.70;3.40;;;;;;;48.01;15.24;96671.01;128141;1092;27334;-87
2021/07/07 08:39:48;;;;;;;4.10;3.60;;;;;;;48.82;15.50;96673.06;128148;1090;22790;-87
2021/07/07 08:42:20;;;;;;;7.00;3.10;;;;;;;49.13;14.77;96678.00;128199;1090;22810;-88
2021/07/07 08:44:52;;;;;;;3.33;3.03;;;;;;;47.67;15.15;96679.00;128172;1093;22820;-88
2021/07/07 08:47:23;;;;;;;4.25;3.35;;;;;;;46.83;16.45;96671.20;128389;1090;22770;-87
2021/07/07 08:49:55;;;;;;;4.15;3.18;;;;;;;46.00;16.94;96669.48;128105;1090;25749;-88
2021/07/07 08:52:30;;;;;;;5.10;3.63;;;;;;;44.30;16.89;96677.45;128136;1093;25939;-88
2021/07/07 08:55:05;;;;;;;4.38;3.60;;;;;;;42.33;18.14;96672.20;128229;1090;28279;-87
2021/07/07 08:57:43;;;;;;;4.40;3.68;;;;;;;39.95;19.45;96679.41;128594;1091;25071;-88
2021/07/07 09:00:17;;;;;;;;;;;;;;;38.38;21.29;96669.13;128694;1092;24287;-88
2021/07/07 09:03:00;;;;;;;4.18;3.68;;;;;;;38.01;21.92;96680.15;128408;1091;23411;-88
2021/07/07 09:05:32;;;;;;;4.08;3.68;;;;;;;37.50;23.38;96677.80;128415;1091;28899;-86
2021/07/07 09:08:09;;;;;;;4.30;3.90;;;;;;;36.61;24.32;96672.01;128437;1090;25257;-86
2021/07/07 09:10:41;;;;;;;4.83;4.28;;;;;;;36.49;25.14;96676.36;128352;1092;28414;-86
2021/07/07 09:13:14;;;;;;;4.50;4.10;;;;;;;36.42;25.11;96669.08;128432;1092;23094;-87
2021/07/07 09:15:47;;;;;;;5.43;4.38;;;;;;;35.62;25.46;96682.34;128367;1092;25874;-86
2021/07/07 09:18:34;;;;;;;6.10;4.03;;;;;;;34.73;26.87;96688.41;128510;1090;25427;-86
2021/07/07 09:21:24;;;;;;;4.68;4.20;;;;;;;33.72;27.74;96690.56;128500;1090;22789;-86
2021/07/07 09:23:57;;;;;;;4.45;4.05;;;;;;;33.09;28.68;96686.03;128447;1092;23286;-86
2021/07/07 09:26:33;;;;;;;4.78;4.33;;;;;;;32.97;28.77;96684.70;128485;1090;24545;-87
2021/07/07 09:29:06;;;;;;;5.20;4.70;;;;;;;33.42;29.28;96680.64;128494;1090;25444;-86
2021/07/07 09:31:41;;;;;;;4.60;4.20;;;;;;;33.78;28.97;96680.58;128445;1092;24564;-87
2021/07/07 09:34:22;;;;;;;5.40;4.65;;;;;;;33.30;29.45;96687.54;128399;1092;22888;-88
2021/07/07 09:36:55;;;;;;;4.70;4.30;;;;;;;32.96;29.73;96694.14;128391;1092;27198;-86
2021/07/07 09:39:26;;;;;;;4.50;4.10;;;;;;;32.79;29.89;96689.73;128374;1091;22788;-87
2021/07/07 09:42:00;;;;;;;4.75;4.35;;;;;;;32.43;30.28;96682.19;128427;1091;24204;-86
2021/07/07 09:44:35;;;;;;;5.57;3.87;;;;;;;32.54;30.92;96684.73;128340;1090;22786;-86
2021/07/07 09:47:07;;;;;;;5.43;4.25;;;;;;;32.31;31.74;96685.53;128515;1090;22797;-86
2021/07/07 09:49:47;;;;;;;6.07;4.10;;;;;;;32.26;31.99;96693.45;128438;1090;25607;-89
2021/07/07 09:52:20;;;;;;;5.00;4.50;;;;;;;31.97;31.76;96684.94;128400;1090;29415;-89
2021/07/07 09:54:52;;;;;;;5.00;4.40;;;;;;;31.96;32.57;96686.91;128398;1090;24089;-90
2021/07/07 09:57:27;;;;;;;4.95;4.45;;;;;;;32.12;32.34;96688.98;128440;1092;23853;-89
2021/07/07 09:59:59;;;;;;;5.03;4.23;;;;;;;31.92;32.17;96697.13;128367;1091;24994;-90
2021/07/07 10:02:30;;;;;;;6.95;4.90;;;;;;;31.74;32.57;96694.67;128404;1090;25067;-89
2021/07/07 10:05:03;;;;;;;4.70;4.03;;;;;;;31.76;32.70;96703.26;128430;1092;24277;-89
2021/07/07 10:07:34;;;;;;;6.93;4.28;;;;;;;31.93;33.76;96700.65;128492;1092;22795;-90
2021/07/07 10:10:08;;;;;;;5.15;4.30;;;;;;;31.87;33.10;96698.39;128441;1092;28907;-88
2021/07/07 10:12:41;;;;;;;4.70;4.20;;;;;;;31.61;32.84;96699.15;128371;1090;25667;-88
2021/07/07 10:15:15;;;;;;;5.43;4.60;;;;;;;31.43;32.99;96698.64;128773;1090;24523;-89
2021/07/07 10:17:47;;;;;;;4.60;4.05;;;;;;;31.49;33.25;96691.49;128345;1090;27835;-89
2021/07/07 10:20:19;;;;;;;5.68;4.05;;;;;;;31.82;33.28;96695.36;128435;1092;22816;-89
2021/07/07 10:22:51;;;;;;;5.13;4.58;;;;;;;32.02;34.07;96696.19;128372;1091;25035;-88
2021/07/07 10:25:26;;;;;;;4.60;4.20;;;;;;;31.93;33.46;96695.16;128324;1091;24352;-92
2021/07/07 10:28:03;;;;;;;4.50;3.88;;;;;;;32.08;34.11;96688.25;128335;1092;32476;-92
2021/07/07 10:30:57;;;;;;;4.73;4.23;;;;;;;32.39;34.99;96689.72;128419;1093;27311;-92
2021/07/07 10:33:31;;;;;;;6.55;5.03;;;;;;;32.43;34.21;96692.39;128303;1090;85886;-90
2021/07/07 10:36:22;;;;;;;8.83;4.65;;;;;;;32.63;33.61;96695.14;128261;1093;58149;-92
2021/07/07 10:38:56;;;;;;;4.93;4.28;;;;;;;32.39;33.88;96694.43;128208;1089;27233;-91
2021/07/07 10:41:59;;;;;;;7.80;4.45;;;;;;;32.40;33.09;96699.50;128146;1090;24378;-91
2021/07/07 10:44:49;;;;;;;6.68;4.68;;;;;;;31.97;33.55;96699.42;128354;1090;26809;-88
2021/07/07 10:47:39;;;;;;;4.88;4.20;;;;;;;32.02;34.23;96695.42;128316;1092;26503;-89
2021/07/07 10:50:31;;;;;;;;;;;;;;;32.08;34.32;96694.51;129886;1093;26825;-90
2021/07/07 10:53:21;;;;;;;5.73;4.68;;;;;;;31.97;35.27;96682.19;129908;1093;37463;-90
2021/07/07 10:55:56;;;;;;;5.45;4.70;;;;;;;31.96;35.17;96689.64;129853;1092;30627;-91
2021/07/07 10:58:33;;;;;;;5.33;4.55;;;;;;;32.15;35.84;96693.63;129858;1093;27928;-89
2021/07/07 11:01:26;;;;;;;5.00;4.40;;;;;;;32.42;36.44;96694.36;128889;1091;22841;-90
2021/07/07 11:04:04;;;;;;;5.93;5.00;;;;;;;32.61;35.54;96681.84;128150;1093;22790;-89
2021/07/07 11:06:38;;;;;;;6.00;5.13;;;;;;;32.74;35.52;96682.77;128153;1091;25715;-89
2021/07/07 11:09:15;;;;;;;7.20;5.30;;;;;;;32.87;35.69;96685.69;128173;1092;24924;-89
2021/07/07 11:11:49;;;;;;;6.43;4.75;;;;;;;33.02;35.50;96684.20;128194;1090;26404;-90
2021/07/07 11:14:28;;;;;;;4.55;4.10;;;;;;;33.15;35.61;96680.80;128112;1092;45404;-90
2021/07/07 11:17:01;;;;;;;5.10;4.60;;;;;;;33.07;34.23;96686.44;128120;1090;23859;-90
2021/07/07 11:19:47;;;;;;;5.85;5.00;;;;;;;32.88;35.08;96698.22;128273;1090;25507;-90
2021/07/07 11:22:20;;;;;;;5.50;4.48;;;;;;;32.62;34.54;96688.11;128157;1090;23145;-90
2021/07/07 11:24:54;;;;;;;6.80;4.70;;;;;;;32.32;34.02;96687.08;128144;1090;26439;-89
2021/07/07 11:27:26;;;;;;;5.63;5.03;;;;;;;32.35;36.15;96683.50;128098;1091;23975;-90
2021/07/07 11:29:57;;;;;;;8.08;4.95;;;;;;;32.53;36.13;96682.42;128119;1091;23378;-91
2021/07/07 11:32:31;;;;;;;5.58;4.60;;;;;;;32.65;35.71;96682.54;128141;1091;27689;-91
2021/07/07 11:35:06;;;;;;;6.43;5.15;;;;;;;32.78;36.29;96677.20;128240;1089;27303;-90
2021/07/07 11:37:39;;;;;;;5.68;4.95;;;;;;;32.94;36.01;96682.01;128217;1092;23153;-90
2021/07/07 11:40:18;;;;;;;7.53;5.45;;;;;;;32.70;35.63;96679.33;128125;1091;29053;-88
2021/07/07 11:43:00;;;;;;;7.00;5.48;;;;;;;32.57;35.24;96680.38;128124;1092;26232;-91
2021/07/07 11:45:35;;;;;;;6.25;4.85;;;;;;;32.57;35.76;96677.63;128400;1093;24671;-93
2021/07/07 11:48:12;;;;;;;5.93;4.98;;;;;;;32.63;36.04;96679.45;128150;1091;33024;-93
2021/07/07 11:50:47;;;;;;;6.23;5.18;;;;;;;32.60;35.65;96680.30;128094;1091;31907;-94